sensor_id;sensor_type;location;lat;lon;timestamp;pressure;altitude;pressure_sealevel;temperature;humidity
10881;BME280;5493;48.884;8.338;2022-09-09T00:00:55;99803.03;;;19.57;100.00
10881;BME280;5493;48.884;8.338;2022-09-09T00:03:27;99814.91;;;19.72;100.00
10881;BME280;5493;48.884;8.338;2022-09-09T00:06:06;99813.28;;;19.71;100.00
10881;BME280;5493;48.884;8.338;2022-09-09T00:08:41;99819.00;;;19.74;100.00
10881;BME280;5493;48.884;8.338;2022-09-09T00:11:13;99805.00;;;19.76;100.00
10881;BME280;5493;48.884;8.338;2022-09-09T00:13:46;99815.69;;;19.77;100.00
10881;BME280;5493;48.884;8.338;2022-09-09T00:16:17;99805.47;;;19.83;100.00
10881;BME280;5493;48.884;8.338;2022-09-09T00:18:53;99801.06;;;19.63;100.00
10881;BME280;5493;48.884;8.338;2022-09-09T00:21:28;99800.13;;;19.73;100.00
10881;BME280;5493;48.884;8.338;2022-09-09T00:23:57;99802.13;;;19.67;100.00
10881;BME280;5493;48.884;8.338;2022-09-09T00:26:31;99800.94;;;19.73;100.00
10881;BME280;5493;48.884;8.338;2022-09-09T00:29:04;99803.91;;;19.77;100.00
10881;BME280;5493;48.884;8.338;2022-09-09T00:31:31;99797.19;;;19.40;100.00
10881;BME280;5493;48.884;8.338;2022-09-09T00:34:02;99797.41;;;19.49;100.00
10881;BME280;5493;48.884;8.338;2022-09-09T00:36:32;99793.91;;;19.67;100.00
10881;BME280;5493;48.884;8.338;2022-09-09T00:39:00;99804.91;;;19.62;100.00
10881;BME280;5493;48.884;8.338;2022-09-09T00:41:39;99794.72;;;19.44;100.00
10881;BME280;5493;48.884;8.338;2022-09-09T00:44:20;99804.47;;;19.50;100.00
10881;BME280;5493;48.884;8.338;2022-09-09T00:46:56;99802.31;;;19.47;100.00
10881;BME280;5493;48.884;8.338;2022-09-09T00:49:35;99804.53;;;19.45;100.00
10881;BME280;5493;48.884;8.338;2022-09-09T00:52:20;99808.13;;;19.40;100.00
10881;BME280;5493;48.884;8.338;2022-09-09T00:54:53;99810.75;;;19.22;100.00
10881;BME280;5493;48.884;8.338;2022-09-09T00:57:27;99804.72;;;19.25;100.00
10881;BME280;5493;48.884;8.338;2022-09-09T01:00:02;99816.66;;;19.34;100.00
10881;BME280;5493;48.884;8.338;2022-09-09T01:02:36;99813.84;;;19.44;100.00
10881;BME280;5493;48.884;8.338;2022-09-09T01:05:10;99823.81;;;19.58;100.00
10881;BME280;5493;48.884;8.338;2022-09-09T01:07:40;99836.97;;;19.56;100.00
10881;BME280;5493;48.884;8.338;2022-09-09T01:10:17;99843.66;;;19.45;100.00
10881;BME280;5493;48.884;8.338;2022-09-09T01:12:48;99858.41;;;19.39;100.00
10881;BME280;5493;48.884;8.338;2022-09-09T01:15:21;99864.13;;;19.48;100.00
10881;BME280;5493;48.884;8.338;2022-09-09T01:17:56;99890.13;;;18.73;100.00
10881;BME280;5493;48.884;8.338;2022-09-09T01:20:26;99900.53;;;18.65;100.00
10881;BME280;5493;48.884;8.338;2022-09-09T01:23:16;99875.13;;;18.70;100.00
10881;BME280;5493;48.884;8.338;2022-09-09T01:26:13;99874.94;;;18.51;100.00
10881;BME280;5493;48.884;8.338;2022-09-09T01:28:43;99882.56;;;18.54;100.00
10881;BME280;5493;48.884;8.338;2022-09-09T01:31:14;99889.66;;;18.50;100.00
10881;BME280;5493;48.884;8.338;2022-09-09T01:33:41;99898.44;;;18.42;100.00
10881;BME280;5493;48.884;8.338;2022-09-09T01:36:09;99908.53;;;18.42;100.00
10881;BME280;5493;48.884;8.338;2022-09-09T01:38:38;99894.72;;;18.18;100.00
10881;BME280;5493;48.884;8.338;2022-09-09T01:41:05;99901.00;;;18.18;100.00
10881;BME280;5493;48.884;8.338;2022-09-09T01:43:33;99911.13;;;18.08;100.00
10881;BME280;5493;48.884;8.338;2022-09-09T01:46:01;99895.34;;;18.00;100.00
10881;BME280;5493;48.884;8.338;2022-09-09T01:48:28;99883.66;;;17.79;100.00
10881;BME280;5493;48.884;8.338;2022-09-09T01:50:56;99871.44;;;17.61;100.00
10881;BME280;5493;48.884;8.338;2022-09-09T01:53:23;99873.28;;;17.76;100.00
10881;BME280;5493;48.884;8.338;2022-09-09T01:55:58;99865.69;;;17.68;100.00
10881;BME280;5493;48.884;8.338;2022-09-09T01:58:32;99863.25;;;17.56;100.00
10881;BME280;5493;48.884;8.338;2022-09-09T02:01:11;99860.53;;;17.41;100.00
10881;BME280;5493;48.884;8.338;2022-09-09T02:03:44;99851.50;;;17.56;100.00
10881;BME280;5493;48.884;8.338;2022-09-09T02:06:21;99845.78;;;17.62;100.00
10881;BME280;5493;48.884;8.338;2022-09-09T02:08:52;99846.91;;;17.56;100.00
10881;BME280;5493;48.884;8.338;2022-09-09T02:11:22;99854.22;;;17.56;100.00
10881;BME280;5493;48.884;8.338;2022-09-09T02:13:51;99846.91;;;17.56;100.00
10881;BME280;5493;48.884;8.338;2022-09-09T02:16:24;99837.91;;;17.61;100.00
10881;BME280;5493;48.884;8.338;2022-09-09T02:18:55;99838.97;;;17.55;100.00
10881;BME280;5493;48.884;8.338;2022-09-09T02:21:24;99828.91;;;17.50;100.00
10881;BME280;5493;48.884;8.338;2022-09-09T02:23:52;99822.34;;;17.66;100.00
10881;BME280;5493;48.884;8.338;2022-09-09T02:26:19;99809.25;;;17.58;100.00
10881;BME280;5493;48.884;8.338;2022-09-09T02:28:50;99817.19;;;17.60;100.00
10881;BME280;5493;48.884;8.338;2022-09-09T02:31:19;99812.00;;;17.68;100.00
10881;BME280;5493;48.884;8.338;2022-09-09T02:33:52;99809.53;;;17.67;100.00
10881;BME280;5493;48.884;8.338;2022-09-09T02:36:23;99807.09;;;17.60;100.00
10881;BME280;5493;48.884;8.338;2022-09-09T02:38:51;99795.09;;;17.61;100.00
10881;BME280;5493;48.884;8.338;2022-09-09T02:41:21;99798.63;;;17.52;100.00
10881;BME280;5493;48.884;8.338;2022-09-09T02:43:50;99805.75;;;17.58;100.00
10881;BME280;5493;48.884;8.338;2022-09-09T02:46:47;99801.38;;;17.57;100.00
10881;BME280;5493;48.884;8.338;2022-09-09T02:49:22;99795.06;;;17.66;100.00
10881;BME280;5493;48.884;8.338;2022-09-09T02:52:00;99803.81;;;17.53;100.00
10881;BME280;5493;48.884;8.338;2022-09-09T02:54:28;99809.81;;;17.60;100.00
10881;BME280;5493;48.884;8.338;2022-09-09T02:57:02;99804.91;;;17.62;100.00
10881;BME280;5493;48.884;8.338;2022-09-09T02:59:30;99809.28;;;17.48;100.00
10881;BME280;5493;48.884;8.338;2022-09-09T03:01:57;99812.25;;;17.67;100.00
10881;BME280;5493;48.884;8.338;2022-09-09T03:04:25;99817.19;;;17.65;100.00
10881;BME280;5493;48.884;8.338;2022-09-09T03:06:51;99817.19;;;17.60;100.00
10881;BME280;5493;48.884;8.338;2022-09-09T03:09:18;99823.19;;;17.57;100.00
10881;BME280;5493;48.884;8.338;2022-09-09T03:11:44;99820.16;;;17.58;100.00
10881;BME280;5493;48.884;8.338;2022-09-09T03:14:11;99815.84;;;17.57;100.00
10881;BME280;5493;48.884;8.338;2022-09-09T03:16:37;99821.81;;;17.64;100.00
10881;BME280;5493;48.884;8.338;2022-09-09T03:19:04;99817.41;;;17.74;100.00
10881;BME280;5493;48.884;8.338;2022-09-09T03:21:32;99823.94;;;17.73;100.00
10881;BME280;5493;48.884;8.338;2022-09-09T03:23:59;99819.31;;;17.73;100.00
10881;BME280;5493;48.884;8.338;2022-09-09T03:26:28;99814.38;;;17.80;100.00
10881;BME280;5493;48.884;8.338;2022-09-09T03:28:55;99814.09;;;17.87;100.00
10881;BME280;5493;48.884;8.338;2022-09-09T03:31:22;99812.16;;;17.87;100.00
10881;BME280;5493;48.884;8.338;2022-09-09T03:33:49;99817.09;;;17.85;100.00
10881;BME280;5493;48.884;8.338;2022-09-09T03:36:17;99803.44;;;17.90;100.00
10881;BME280;5493;48.884;8.338;2022-09-09T03:38:44;99805.41;;;17.80;100.00
10881;BME280;5493;48.884;8.338;2022-09-09T03:41:11;99817.66;;;17.82;100.00
10881;BME280;5493;48.884;8.338;2022-09-09T03:43:38;99810.03;;;17.79;100.00
10881;BME280;5493;48.884;8.338;2022-09-09T03:46:04;99814.94;;;17.82;100.00
10881;BME280;5493;48.884;8.338;2022-09-09T03:48:31;99808.91;;;17.80;100.00
10881;BME280;5493;48.884;8.338;2022-09-09T03:50:57;99804.84;;;17.78;100.00
10881;BME280;5493;48.884;8.338;2022-09-09T03:53:27;99804.03;;;17.82;100.00
10881;BME280;5493;48.884;8.338;2022-09-09T03:55:56;99801.56;;;17.81;100.00
10881;BME280;5493;48.884;8.338;2022-09-09T03:58:25;99798.00;;;17.90;100.00
10881;BME280;5493;48.884;8.338;2022-09-09T04:00:56;99796.56;;;17.98;100.00
10881;BME280;5493;48.884;8.338;2022-09-09T04:03:23;99797.63;;;18.07;100.00
10881;BME280;5493;48.884;8.338;2022-09-09T04:05:50;99804.50;;;17.99;100.00
10881;BME280;5493;48.884;8.338;2022-09-09T04:08:17;99805.09;;;17.86;100.00
10881;BME280;5493;48.884;8.338;2022-09-09T04:10:44;99806.13;;;18.00;100.00
10881;BME280;5493;48.884;8.338;2022-09-09T04:13:13;99815.38;;;18.04;100.00
10881;BME280;5493;48.884;8.338;2022-09-09T04:15:41;99819.97;;;18.19;100.00
10881;BME280;5493;48.884;8.338;2022-09-09T04:18:08;99818.63;;;18.11;100.00
10881;BME280;5493;48.884;8.338;2022-09-09T04:20:35;99815.09;;;18.06;100.00
10881;BME280;5493;48.884;8.338;2022-09-09T04:23:01;99816.47;;;18.08;100.00
10881;BME280;5493;48.884;8.338;2022-09-09T04:25:28;99821.09;;;18.08;100.00
10881;BME280;5493;48.884;8.338;2022-09-09T04:27:55;99819.41;;;18.17;100.00
10881;BME280;5493;48.884;8.338;2022-09-09T04:30:24;99809.88;;;18.09;100.00
10881;BME280;5493;48.884;8.338;2022-09-09T04:32:52;99813.94;;;18.22;100.00
10881;BME280;5493;48.884;8.338;2022-09-09T04:35:19;99811.97;;;18.33;100.00
10881;BME280;5493;48.884;8.338;2022-09-09T04:37:46;99815.50;;;18.33;100.00
10881;BME280;5493;48.884;8.338;2022-09-09T04:40:13;99826.44;;;18.33;100.00
10881;BME280;5493;48.884;8.338;2022-09-09T04:42:40;99824.47;;;18.39;100.00
10881;BME280;5493;48.884;8.338;2022-09-09T04:45:09;99832.66;;;18.39;100.00
10881;BME280;5493;48.884;8.338;2022-09-09T04:47:37;99840.91;;;18.29;100.00
10881;BME280;5493;48.884;8.338;2022-09-09T04:50:04;99843.00;;;18.42;100.00
10881;BME280;5493;48.884;8.338;2022-09-09T04:52:33;99842.19;;;18.41;100.00
10881;BME280;5493;48.884;8.338;2022-09-09T04:54:59;99842.72;;;18.48;100.00
10881;BME280;5493;48.884;8.338;2022-09-09T04:57:26;99844.91;;;18.46;100.00
10881;BME280;5493;48.884;8.338;2022-09-09T04:59:53;99843.00;;;18.52;100.00
10881;BME280;5493;48.884;8.338;2022-09-09T05:02:20;99850.94;;;18.38;100.00
10881;BME280;5493;48.884;8.338;2022-09-09T05:04:48;99848.72;;;18.50;100.00
10881;BME280;5493;48.884;8.338;2022-09-09T05:07:15;99855.31;;;18.44;100.00
10881;BME280;5493;48.884;8.338;2022-09-09T05:09:41;99843.81;;;18.52;100.00
10881;BME280;5493;48.884;8.338;2022-09-09T05:12:08;99850.00;;;18.63;100.00
10881;BME280;5493;48.884;8.338;2022-09-09T05:14:34;99849.16;;;18.73;100.00
10881;BME280;5493;48.884;8.338;2022-09-09T05:17:02;99846.84;;;18.85;100.00
10881;BME280;5493;48.884;8.338;2022-09-09T05:19:29;99850.47;;;18.80;100.00
10881;BME280;5493;48.884;8.338;2022-09-09T05:21:57;99853.22;;;18.75;100.00
10881;BME280;5493;48.884;8.338;2022-09-09T05:24:24;99856.78;;;18.76;100.00
10881;BME280;5493;48.884;8.338;2022-09-09T05:26:50;99861.72;;;18.74;100.00
10881;BME280;5493;48.884;8.338;2022-09-09T05:29:17;99851.22;;;18.86;100.00
10881;BME280;5493;48.884;8.338;2022-09-09T05:31:44;99858.94;;;18.79;100.00
10881;BME280;5493;48.884;8.338;2022-09-09T05:34:12;99859.16;;;18.87;100.00
10881;BME280;5493;48.884;8.338;2022-09-09T05:36:38;99859.81;;;19.03;100.00
10881;BME280;5493;48.884;8.338;2022-09-09T05:39:06;99857.41;;;19.01;100.00
10881;BME280;5493;48.884;8.338;2022-09-09T05:41:33;99851.88;;;19.06;100.00
10881;BME280;5493;48.884;8.338;2022-09-09T05:44:01;99857.56;;;19.15;100.00
10881;BME280;5493;48.884;8.338;2022-09-09T05:46:28;99856.78;;;19.09;100.00
10881;BME280;5493;48.884;8.338;2022-09-09T05:48:55;99854.44;;;19.27;100.00
10881;BME280;5493;48.884;8.338;2022-09-09T05:51:25;99860.53;;;19.52;100.00
10881;BME280;5493;48.884;8.338;2022-09-09T05:53:53;99865.00;;;19.38;100.00
10881;BME280;5493;48.884;8.338;2022-09-09T05:56:26;99860.88;;;19.46;100.00
10881;BME280;5493;48.884;8.338;2022-09-09T05:58:53;99860.63;;;19.37;100.00
10881;BME280;5493;48.884;8.338;2022-09-09T06:01:22;99871.22;;;19.49;100.00
10881;BME280;5493;48.884;8.338;2022-09-09T06:03:50;99859.47;;;19.48;100.00
10881;BME280;5493;48.884;8.338;2022-09-09T06:06:18;99862.22;;;19.72;100.00
10881;BME280;5493;48.884;8.338;2022-09-09T06:08:48;99867.19;;;19.70;100.00
10881;BME280;5493;48.884;8.338;2022-09-09T06:11:17;99862.19;;;19.77;100.00
10881;BME280;5493;48.884;8.338;2022-09-09T06:13:46;99859.81;;;19.71;100.00
10881;BME280;5493;48.884;8.338;2022-09-09T06:16:14;99864.97;;;19.72;100.00
10881;BME280;5493;48.884;8.338;2022-09-09T06:18:42;99861.94;;;19.74;100.00
10881;BME280;5493;48.884;8.338;2022-09-09T06:21:11;99859.69;;;19.81;100.00
10881;BME280;5493;48.884;8.338;2022-09-09T06:23:39;99864.53;;;19.89;100.00
10881;BME280;5493;48.884;8.338;2022-09-09T06:26:08;99862.25;;;19.96;100.00
10881;BME280;5493;48.884;8.338;2022-09-09T06:28:35;99857.06;;;19.94;100.00
10881;BME280;5493;48.884;8.338;2022-09-09T06:31:05;99857.88;;;19.95;100.00
10881;BME280;5493;48.884;8.338;2022-09-09T06:33:33;99856.94;;;20.04;100.00
10881;BME280;5493;48.884;8.338;2022-09-09T06:36:00;99856.22;;;19.94;100.00
10881;BME280;5493;48.884;8.338;2022-09-09T06:38:27;99861.66;;;19.99;100.00
10881;BME280;5493;48.884;8.338;2022-09-09T06:40:55;99856.69;;;20.01;100.00
10881;BME280;5493;48.884;8.338;2022-09-09T06:43:23;99860.75;;;20.27;100.00
10881;BME280;5493;48.884;8.338;2022-09-09T06:45:54;99856.13;;;20.28;100.00
10881;BME280;5493;48.884;8.338;2022-09-09T06:48:22;99854.28;;;20.42;100.00
10881;BME280;5493;48.884;8.338;2022-09-09T06:50:51;99854.22;;;20.66;100.00
10881;BME280;5493;48.884;8.338;2022-09-09T06:53:18;99852.91;;;20.82;100.00
10881;BME280;5493;48.884;8.338;2022-09-09T06:55:45;99857.41;;;20.91;100.00
10881;BME280;5493;48.884;8.338;2022-09-09T06:58:12;99847.59;;;21.04;100.00
10881;BME280;5493;48.884;8.338;2022-09-09T07:00:38;99848.56;;;21.13;100.00
10881;BME280;5493;48.884;8.338;2022-09-09T07:03:05;99853.81;;;21.09;100.00
10881;BME280;5493;48.884;8.338;2022-09-09T07:05:33;99854.06;;;21.13;100.00
10881;BME280;5493;48.884;8.338;2022-09-09T07:07:59;99854.28;;;20.98;100.00
10881;BME280;5493;48.884;8.338;2022-09-09T07:10:26;99861.56;;;20.89;100.00
10881;BME280;5493;48.884;8.338;2022-09-09T07:12:53;99881.47;;;20.57;100.00
10881;BME280;5493;48.884;8.338;2022-09-09T07:15:20;99881.91;;;20.45;100.00
10881;BME280;5493;48.884;8.338;2022-09-09T07:17:48;99880.72;;;20.33;100.00
10881;BME280;5493;48.884;8.338;2022-09-09T07:20:15;99897.81;;;20.20;100.00
10881;BME280;5493;48.884;8.338;2022-09-09T07:22:42;99885.88;;;20.10;100.00
10881;BME280;5493;48.884;8.338;2022-09-09T07:25:09;99890.19;;;20.17;100.00
10881;BME280;5493;48.884;8.338;2022-09-09T07:27:36;99894.59;;;20.60;100.00
10881;BME280;5493;48.884;8.338;2022-09-09T07:30:03;99879.34;;;20.73;100.00
10881;BME280;5493;48.884;8.338;2022-09-09T07:32:30;99886.22;;;20.89;100.00
10881;BME280;5493;48.884;8.338;2022-09-09T07:34:56;99894.00;;;21.19;100.00
10881;BME280;5493;48.884;8.338;2022-09-09T07:37:23;99890.00;;;21.12;100.00
10881;BME280;5493;48.884;8.338;2022-09-09T07:39:51;99889.91;;;21.17;100.00
10881;BME280;5493;48.884;8.338;2022-09-09T07:42:18;99877.75;;;21.04;100.00
10881;BME280;5493;48.884;8.338;2022-09-09T07:44:44;99884.78;;;21.29;100.00
10881;BME280;5493;48.884;8.338;2022-09-09T07:47:11;99885.03;;;21.46;100.00
10881;BME280;5493;48.884;8.338;2022-09-09T07:49:37;99883.84;;;21.52;100.00
10881;BME280;5493;48.884;8.338;2022-09-09T07:52:04;99885.78;;;21.65;100.00
10881;BME280;5493;48.884;8.338;2022-09-09T07:54:31;99880.91;;;21.62;100.00
10881;BME280;5493;48.884;8.338;2022-09-09T07:56:59;99886.63;;;21.79;100.00
10881;BME280;5493;48.884;8.338;2022-09-09T07:59:25;99873.41;;;21.81;100.00
10881;BME280;5493;48.884;8.338;2022-09-09T08:01:55;99881.59;;;22.27;100.00
10881;BME280;5493;48.884;8.338;2022-09-09T08:04:23;99889.81;;;22.41;100.00
10881;BME280;5493;48.884;8.338;2022-09-09T08:06:51;99885.47;;;21.99;100.00
10881;BME280;5493;48.884;8.338;2022-09-09T08:09:19;99887.19;;;21.95;100.00
10881;BME280;5493;48.884;8.338;2022-09-09T08:11:45;99893.31;;;21.59;100.00
10881;BME280;5493;48.884;8.338;2022-09-09T08:14:14;99897.06;;;21.31;100.00
10881;BME280;5493;48.884;8.338;2022-09-09T08:16:42;99893.00;;;21.10;100.00
10881;BME280;5493;48.884;8.338;2022-09-09T08:19:09;99908.22;;;21.21;100.00
10881;BME280;5493;48.884;8.338;2022-09-09T08:21:38;99915.25;;;20.90;100.00
10881;BME280;5493;48.884;8.338;2022-09-09T08:24:06;99930.56;;;20.91;100.00
10881;BME280;5493;48.884;8.338;2022-09-09T08:26:35;99929.28;;;20.46;100.00
10881;BME280;5493;48.884;8.338;2022-09-09T08:29:04;99928.84;;;20.39;100.00
10881;BME280;5493;48.884;8.338;2022-09-09T08:31:35;99924.84;;;20.50;100.00
10881;BME280;5493;48.884;8.338;2022-09-09T08:34:02;99928.88;;;20.57;100.00
10881;BME280;5493;48.884;8.338;2022-09-09T08:36:32;99925.97;;;20.49;100.00
10881;BME280;5493;48.884;8.338;2022-09-09T08:39:00;99917.34;;;20.79;100.00
10881;BME280;5493;48.884;8.338;2022-09-09T08:41:57;99927.69;;;20.82;100.00
10881;BME280;5493;48.884;8.338;2022-09-09T08:44:37;99918.72;;;20.58;100.00
10881;BME280;5493;48.884;8.338;2022-09-09T08:47:17;99929.88;;;20.43;100.00
10881;BME280;5493;48.884;8.338;2022-09-09T08:49:55;99937.53;;;20.65;100.00
10881;BME280;5493;48.884;8.338;2022-09-09T08:52:27;99919.16;;;20.46;100.00
10881;BME280;5493;48.884;8.338;2022-09-09T08:54:57;99938.25;;;20.51;100.00
10881;BME280;5493;48.884;8.338;2022-09-09T08:57:26;99940.69;;;20.53;100.00
10881;BME280;5493;48.884;8.338;2022-09-09T08:59:55;99947.41;;;20.42;100.00
10881;BME280;5493;48.884;8.338;2022-09-09T09:02:26;99946.13;;;20.77;100.00
10881;BME280;5493;48.884;8.338;2022-09-09T09:05:06;99945.41;;;20.90;100.00
10881;BME280;5493;48.884;8.338;2022-09-09T09:07:46;99943.78;;;21.07;100.00
10881;BME280;5493;48.884;8.338;2022-09-09T09:10:25;99928.53;;;21.01;100.00
10881;BME280;5493;48.884;8.338;2022-09-09T09:12:57;99935.41;;;21.36;100.00
10881;BME280;5493;48.884;8.338;2022-09-09T09:15:26;99921.97;;;21.35;100.00
10881;BME280;5493;48.884;8.338;2022-09-09T09:17:57;99916.44;;;21.53;100.00
10881;BME280;5493;48.884;8.338;2022-09-09T09:20:29;99911.53;;;21.69;100.00
10881;BME280;5493;48.884;8.338;2022-09-09T09:23:00;99913.88;;;21.89;100.00
10881;BME280;5493;48.884;8.338;2022-09-09T09:25:31;99916.38;;;21.91;100.00
10881;BME280;5493;48.884;8.338;2022-09-09T09:28:02;99915.78;;;22.35;100.00
10881;BME280;5493;48.884;8.338;2022-09-09T09:30:35;99919.13;;;22.18;100.00
10881;BME280;5493;48.884;8.338;2022-09-09T09:33:08;99918.91;;;22.01;100.00
10881;BME280;5493;48.884;8.338;2022-09-09T09:35:38;99914.84;;;22.39;100.00
10881;BME280;5493;48.884;8.338;2022-09-09T09:38:16;99916.88;;;22.34;100.00
10881;BME280;5493;48.884;8.338;2022-09-09T09:40:49;99923.19;;;22.48;100.00
10881;BME280;5493;48.884;8.338;2022-09-09T09:43:20;99918.41;;;22.53;100.00
10881;BME280;5493;48.884;8.338;2022-09-09T09:45:48;99921.44;;;22.25;100.00
10881;BME280;5493;48.884;8.338;2022-09-09T09:48:15;99923.88;;;22.40;100.00
10881;BME280;5493;48.884;8.338;2022-09-09T09:50:48;99918.00;;;22.19;100.00
10881;BME280;5493;48.884;8.338;2022-09-09T09:53:22;99916.41;;;21.86;100.00
10881;BME280;5493;48.884;8.338;2022-09-09T09:55:54;99918.72;;;21.97;100.00
10881;BME280;5493;48.884;8.338;2022-09-09T09:58:21;99926.13;;;21.97;100.00
10881;BME280;5493;48.884;8.338;2022-09-09T10:00:48;99914.91;;;21.80;100.00
10881;BME280;5493;48.884;8.338;2022-09-09T10:03:22;99919.97;;;21.73;100.00
10881;BME280;5493;48.884;8.338;2022-09-09T10:05:49;99922.56;;;21.96;100.00
10881;BME280;5493;48.884;8.338;2022-09-09T10:08:17;99923.69;;;21.95;100.00
10881;BME280;5493;48.884;8.338;2022-09-09T10:10:58;99922.06;;;21.62;100.00
10881;BME280;5493;48.884;8.338;2022-09-09T10:13:29;99915.28;;;21.73;100.00
10881;BME280;5493;48.884;8.338;2022-09-09T10:16:10;99920.94;;;21.95;100.00
10881;BME280;5493;48.884;8.338;2022-09-09T10:18:56;99910.06;;;22.04;100.00
10881;BME280;5493;48.884;8.338;2022-09-09T10:21:37;99906.41;;;22.08;100.00
10881;BME280;5493;48.884;8.338;2022-09-09T10:24:22;99899.16;;;22.40;100.00
10881;BME280;5493;48.884;8.338;2022-09-09T10:26:58;99894.25;;;22.50;100.00
10881;BME280;5493;48.884;8.338;2022-09-09T10:29:51;99895.84;;;22.92;100.00
10881;BME280;5493;48.884;8.338;2022-09-09T10:32:33;99889.59;;;23.00;100.00
10881;BME280;5493;48.884;8.338;2022-09-09T10:35:09;99894.41;;;23.17;100.00
10881;BME280;5493;48.884;8.338;2022-09-09T10:38:00;99895.13;;;23.45;100.00
10881;BME280;5493;48.884;8.338;2022-09-09T10:40:32;99898.41;;;23.33;100.00
10881;BME280;5493;48.884;8.338;2022-09-09T10:43:07;99912.03;;;23.16;100.00
10881;BME280;5493;48.884;8.338;2022-09-09T10:45:40;99903.31;;;23.14;100.00
10881;BME280;5493;48.884;8.338;2022-09-09T10:48:24;99905.69;;;23.29;100.00
10881;BME280;5493;48.884;8.338;2022-09-09T10:51:02;99902.13;;;23.51;100.00
10881;BME280;5493;48.884;8.338;2022-09-09T10:53:37;99902.72;;;23.03;100.00
10881;BME280;5493;48.884;8.338;2022-09-09T10:56:12;99899.31;;;23.65;100.00
10881;BME280;5493;48.884;8.338;2022-09-09T10:58:43;99904.25;;;23.85;100.00
10881;BME280;5493;48.884;8.338;2022-09-09T11:01:17;99899.56;;;23.55;100.00
10881;BME280;5493;48.884;8.338;2022-09-09T11:03:47;99895.56;;;24.00;100.00
10881;BME280;5493;48.884;8.338;2022-09-09T11:06:19;99885.19;;;23.97;100.00
10881;BME280;5493;48.884;8.338;2022-09-09T11:08:48;99882.88;;;24.21;100.00
10881;BME280;5493;48.884;8.338;2022-09-09T11:11:18;99883.97;;;24.77;100.00
10881;BME280;5493;48.884;8.338;2022-09-09T11:13:51;99875.22;;;25.35;100.00
10881;BME280;5493;48.884;8.338;2022-09-09T11:16:25;99875.88;;;25.15;100.00
10881;BME280;5493;48.884;8.338;2022-09-09T11:18:57;99885.63;;;26.31;100.00
10881;BME280;5493;48.884;8.338;2022-09-09T11:21:29;99879.66;;;26.50;100.00
10881;BME280;5493;48.884;8.338;2022-09-09T11:23:59;99866.75;;;25.95;100.00
10881;BME280;5493;48.884;8.338;2022-09-09T11:26:35;99883.94;;;26.47;100.00
10881;BME280;5493;48.884;8.338;2022-09-09T11:29:19;99878.84;;;26.20;100.00
10881;BME280;5493;48.884;8.338;2022-09-09T11:32:06;99870.50;;;26.58;100.00
10881;BME280;5493;48.884;8.338;2022-09-09T11:34:44;99863.38;;;27.19;100.00
10881;BME280;5493;48.884;8.338;2022-09-09T11:37:27;99867.31;;;26.97;100.00
10881;BME280;5493;48.884;8.338;2022-09-09T11:40:08;99871.31;;;26.87;100.00
10881;BME280;5493;48.884;8.338;2022-09-09T11:42:40;99865.53;;;26.51;100.00
10881;BME280;5493;48.884;8.338;2022-09-09T11:45:19;99856.03;;;26.31;100.00
10881;BME280;5493;48.884;8.338;2022-09-09T11:47:52;99858.13;;;27.05;100.00
10881;BME280;5493;48.884;8.338;2022-09-09T11:50:34;99856.56;;;26.75;100.00
10881;BME280;5493;48.884;8.338;2022-09-09T11:53:22;99847.50;;;27.07;100.00
10881;BME280;5493;48.884;8.338;2022-09-09T11:56:12;99845.28;;;26.59;100.00
10881;BME280;5493;48.884;8.338;2022-09-09T11:58:42;99835.22;;;25.58;100.00
10881;BME280;5493;48.884;8.338;2022-09-09T12:01:34;99831.91;;;26.11;100.00
10881;BME280;5493;48.884;8.338;2022-09-09T12:04:13;99828.78;;;25.83;100.00
10881;BME280;5493;48.884;8.338;2022-09-09T12:06:45;99841.63;;;26.47;100.00
10881;BME280;5493;48.884;8.338;2022-09-09T12:09:19;99828.44;;;26.94;100.00
10881;BME280;5493;48.884;8.338;2022-09-09T12:11:49;99832.84;;;26.44;100.00
10881;BME280;5493;48.884;8.338;2022-09-09T12:14:21;99834.81;;;26.15;100.00
10881;BME280;5493;48.884;8.338;2022-09-09T12:16:48;99838.00;;;25.96;100.00
10881;BME280;5493;48.884;8.338;2022-09-09T12:19:19;99839.63;;;25.97;100.00
10881;BME280;5493;48.884;8.338;2022-09-09T12:21:51;99830.00;;;25.65;100.00
10881;BME280;5493;48.884;8.338;2022-09-09T12:24:27;99826.19;;;25.32;100.00
10881;BME280;5493;48.884;8.338;2022-09-09T12:26:59;99823.16;;;24.90;100.00
10881;BME280;5493;48.884;8.338;2022-09-09T12:29:38;99827.16;;;25.27;100.00
10881;BME280;5493;48.884;8.338;2022-09-09T12:32:10;99827.34;;;24.71;100.00
10881;BME280;5493;48.884;8.338;2022-09-09T12:34:40;99823.91;;;24.22;100.00
10881;BME280;5493;48.884;8.338;2022-09-09T12:37:16;99833.50;;;23.94;100.00
10881;BME280;5493;48.884;8.338;2022-09-09T12:39:49;99851.09;;;23.45;100.00
10881;BME280;5493;48.884;8.338;2022-09-09T12:42:20;99881.97;;;22.48;100.00
10881;BME280;5493;48.884;8.338;2022-09-09T12:44:51;99873.78;;;22.21;100.00
10881;BME280;5493;48.884;8.338;2022-09-09T12:47:20;99870.16;;;21.79;100.00
10881;BME280;5493;48.884;8.338;2022-09-09T12:49:48;99858.75;;;22.68;100.00
10881;BME280;5493;48.884;8.338;2022-09-09T12:52:22;99864.41;;;23.07;100.00
10881;BME280;5493;48.884;8.338;2022-09-09T12:54:53;99845.13;;;23.51;100.00
10881;BME280;5493;48.884;8.338;2022-09-09T12:57:22;99848.50;;;23.48;100.00
10881;BME280;5493;48.884;8.338;2022-09-09T12:59:50;99830.00;;;23.40;100.00
10881;BME280;5493;48.884;8.338;2022-09-09T13:02:20;99838.50;;;23.52;100.00
10881;BME280;5493;48.884;8.338;2022-09-09T13:04:47;99830.78;;;23.32;100.00
10881;BME280;5493;48.884;8.338;2022-09-09T13:07:16;99831.69;;;23.28;100.00
10881;BME280;5493;48.884;8.338;2022-09-09T13:09:43;99834.53;;;23.36;100.00
10881;BME280;5493;48.884;8.338;2022-09-09T13:12:14;99819.88;;;23.27;100.00
10881;BME280;5493;48.884;8.338;2022-09-09T13:14:44;99810.25;;;23.38;100.00
10881;BME280;5493;48.884;8.338;2022-09-09T13:17:18;99814.25;;;23.55;100.00
10881;BME280;5493;48.884;8.338;2022-09-09T13:19:45;99812.03;;;23.74;100.00